Time;durP1;ratioP1;P1;durP2;ratioP2;P2;SDS_P1;SDS_P2;PMS_P1;PMS_P2;Temp;Humidity;BMP_temperature;BMP_pressure;BME280_temperature;BME280_humidity;BME280_pressure;Samples;Min_cycle;Max_cycle;Signal;HPM_P1;HPM_P2
2023/03/08 05:00:08;;;;;;;10.52;8.25;;;0.60;99.90;;;;;;5708154;23;20809;-77
2023/03/08 05:02:35;;;;;;;11.00;7.40;;;0.60;99.90;;;;;;4999897;28;20211;-76
2023/03/08 05:05:03;;;;;;;11.02;7.28;;;0.70;99.90;;;;;;5000567;28;20210;-75
2023/03/08 05:07:29;;;;;;;12.25;8.40;;;0.80;99.90;;;;;;4999811;28;20203;-73
2023/03/08 05:09:56;;;;;;;13.35;8.38;;;0.80;99.90;;;;;;5003467;28;20702;-75
2023/03/08 05:12:23;;;;;;;11.25;7.88;;;0.80;99.90;;;;;;5002118;28;20207;-72
2023/03/08 05:14:49;;;;;;;10.38;7.22;;;0.80;99.90;;;;;;5001645;28;20206;-73
2023/03/08 05:17:17;;;;;;;12.27;7.72;;;0.90;99.90;;;;;;5003003;28;20205;-73
2023/03/08 05:19:44;;;;;;;10.68;6.72;;;0.90;99.90;;;;;;5002668;28;20226;-74
2023/03/08 05:22:11;;;;;;;10.30;7.00;;;1.00;99.90;;;;;;5002485;28;20666;-74
2023/03/08 05:24:39;;;;;;;8.93;6.65;;;1.00;99.90;;;;;;5002069;28;20210;-74
2023/03/08 05:27:06;;;;;;;9.88;6.88;;;1.00;99.90;;;;;;5004756;28;20222;-75
2023/03/08 05:29:33;;;;;;;13.38;8.82;;;1.10;99.90;;;;;;5001273;28;20234;-75
2023/03/08 05:32:01;;;;;;;10.77;7.68;;;1.10;99.90;;;;;;5001166;28;20213;-74
2023/03/08 05:34:29;;;;;;;9.23;6.82;;;1.10;99.90;;;;;;5001512;28;20221;-76
2023/03/08 05:36:56;;;;;;;8.68;6.80;;;1.10;99.90;;;;;;5003653;28;20209;-75
2023/03/08 05:39:23;;;;;;;8.73;6.50;;;1.10;99.90;;;;;;5004052;28;20237;-75
2023/03/08 05:41:50;;;;;;;8.88;6.68;;;1.20;99.90;;;;;;5005583;28;20654;-75
2023/03/08 05:44:16;;;;;;;10.57;7.78;;;1.20;99.90;;;;;;5006721;28;20207;-74
2023/03/08 05:46:43;;;;;;;11.32;7.72;;;1.20;99.90;;;;;;5004820;28;20226;-77
2023/03/08 05:49:10;;;;;;;12.38;8.20;;;1.30;99.90;;;;;;5008149;28;20260;-77
2023/03/08 05:51:38;;;;;;;18.25;9.95;;;1.30;99.90;;;;;;5011986;28;20210;-75
2023/03/08 05:54:05;;;;;;;13.57;8.80;;;1.30;99.90;;;;;;5012641;28;20213;-76
2023/03/08 05:56:32;;;;;;;9.52;7.32;;;1.40;99.90;;;;;;5013786;28;20195;-76
2023/03/08 05:58:58;;;;;;;9.82;7.70;;;1.40;99.90;;;;;;5014398;28;20211;-76
2023/03/08 06:01:27;;;;;;;10.40;7.75;;;1.50;99.90;;;;;;5012259;28;20670;-76
2023/03/08 06:03:55;;;;;;;9.32;6.75;;;1.50;99.90;;;;;;4998687;28;20187;-76
2023/03/08 06:06:23;;;;;;;9.88;7.28;;;1.50;99.90;;;;;;4998014;28;20586;-76
2023/03/08 06:08:51;;;;;;;11.27;8.68;;;1.50;99.90;;;;;;4997967;28;20198;-76
2023/03/08 06:11:18;;;;;;;15.70;10.20;;;1.50;99.90;;;;;;5000008;28;20249;-77
2023/03/08 06:13:45;;;;;;;15.90;10.18;;;1.50;99.90;;;;;;5012177;28;20203;-78
2023/03/08 06:16:12;;;;;;;13.85;9.88;;;1.50;99.90;;;;;;5013621;28;20203;-78
2023/03/08 06:18:40;;;;;;;16.02;9.82;;;1.60;99.90;;;;;;5016217;28;20214;-78
2023/03/08 06:21:09;;;;;;;12.45;8.50;;;1.60;99.90;;;;;;5017676;28;20227;-78
2023/03/08 06:23:36;;;;;;;12.73;8.45;;;1.70;99.90;;;;;;5019220;28;20186;-79
2023/03/08 06:26:05;;;;;;;13.23;9.07;;;1.70;99.90;;;;;;5020208;28;20229;-79
2023/03/08 06:28:33;;;;;;;11.65;8.55;;;1.80;99.90;;;;;;5021265;28;20175;-79
2023/03/08 06:31:00;;;;;;;12.40;8.52;;;1.80;99.90;;;;;;5021107;28;20246;-79
2023/03/08 06:33:28;;;;;;;13.65;8.30;;;1.90;99.90;;;;;;5012269;28;20215;-75
2023/03/08 06:35:56;;;;;;;12.18;8.13;;;1.90;99.90;;;;;;5005916;28;20198;-76
2023/03/08 06:38:23;;;;;;;14.05;8.27;;;1.90;99.90;;;;;;5003876;28;20230;-75
2023/03/08 06:40:50;;;;;;;13.45;8.40;;;2.00;99.90;;;;;;5010748;28;20233;-76
2023/03/08 06:43:18;;;;;;;13.25;9.05;;;2.00;99.90;;;;;;5007000;28;20209;-76
2023/03/08 06:45:45;;;;;;;12.07;8.55;;;2.10;99.90;;;;;;5008396;28;20205;-75
2023/03/08 06:48:12;;;;;;;11.27;7.45;;;2.30;99.90;;;;;;5008090;28;20213;-76
2023/03/08 06:50:38;;;;;;;11.18;7.93;;;2.30;99.90;;;;;;5011652;28;20223;-76
2023/03/08 06:53:05;;;;;;;12.68;8.32;;;2.50;99.90;;;;;;5010643;28;20202;-76
2023/03/08 06:55:34;;;;;;;16.17;9.68;;;2.50;99.90;;;;;;5011752;28;20202;-76
2023/03/08 06:58:00;;;;;;;13.02;9.23;;;2.60;99.90;;;;;;5011541;28;20213;-76
2023/03/08 07:00:29;;;;;;;15.07;9.10;;;2.60;99.90;;;;;;5014922;28;20238;-76
2023/03/08 07:02:55;;;;;;;12.82;8.85;;;2.70;99.90;;;;;;5016034;28;20311;-77
2023/03/08 07:05:23;;;;;;;13.82;9.07;;;2.80;99.90;;;;;;5009320;28;20209;-76
2023/03/08 07:07:49;;;;;;;11.15;7.50;;;3.00;99.90;;;;;;5000643;28;20550;-77
2023/03/08 07:10:18;;;;;;;10.88;8.68;;;3.20;99.90;;;;;;4998892;28;20222;-77
2023/03/08 07:12:47;;;;;;;10.50;8.10;;;3.40;99.90;;;;;;4998498;28;20206;-77
2023/03/08 07:15:15;;;;;;;12.13;8.15;;;3.70;99.90;;;;;;4998587;28;20217;-76
2023/03/08 07:17:43;;;;;;;12.55;8.32;;;4.00;99.90;;;;;;4998628;28;20202;-77
2023/03/08 07:20:11;;;;;;;10.23;8.00;;;4.20;99.90;;;;;;4998337;28;20571;-75
2023/03/08 07:22:40;;;;;;;11.45;7.30;;;4.50;99.90;;;;;;4998611;28;20214;-76
2023/03/08 07:25:08;;;;;;;11.60;7.65;;;4.90;99.90;;;;;;4998601;28;20206;-75
2023/03/08 07:27:34;;;;;;;9.38;6.72;;;5.30;99.90;;;;;;4998691;28;20590;-76
2023/03/08 07:30:01;;;;;;;11.02;7.85;;;5.70;99.90;;;;;;4999224;28;20223;-76
2023/03/08 07:32:28;;;;;;;9.63;7.25;;;6.00;99.90;;;;;;4998567;28;20214;-77
2023/03/08 07:34:57;;;;;;;9.80;7.75;;;6.00;99.90;;;;;;4997081;28;20624;-77
2023/03/08 07:37:24;;;;;;;12.65;8.00;;;5.90;99.90;;;;;;4998079;28;20203;-77
2023/03/08 07:39:51;;;;;;;10.90;7.57;;;6.00;99.70;;;;;;4996626;28;20605;-75
2023/03/08 07:42:18;;;;;;;14.60;9.65;;;6.00;99.90;;;;;;4996070;28;20207;-76
2023/03/08 07:44:45;;;;;;;16.13;9.45;;;6.10;99.90;;;;;;4996268;28;20206;-77
2023/03/08 07:47:12;;;;;;;11.45;8.13;;;6.10;99.10;;;;;;4996271;28;20223;-77
2023/03/08 07:49:39;;;;;;;12.48;8.05;;;6.10;98.00;;;;;;4996077;28;20238;-77
2023/03/08 07:52:07;;;;;;;12.50;8.13;;;5.90;98.50;;;;;;4995637;28;20662;-77
2023/03/08 07:54:33;;;;;;;11.00;7.13;;;5.70;99.90;;;;;;4995904;28;20210;-77
2023/03/08 07:57:00;;;;;;;9.63;7.20;;;5.70;99.90;;;;;;4995690;28;20670;-76
2023/03/08 07:59:27;;;;;;;9.95;7.43;;;6.30;99.90;;;;;;4995620;28;20317;-76
2023/03/08 08:01:54;;;;;;;11.70;7.63;;;6.60;99.90;;;;;;4995624;28;20214;-76
2023/03/08 08:04:21;;;;;;;14.52;8.57;;;7.00;96.00;;;;;;4995691;28;20209;-76
2023/03/08 08:06:48;;;;;;;7.65;5.68;;;7.00;91.80;;;;;;4995710;28;20223;-76
2023/03/08 08:09:17;;;;;;;7.60;5.40;;;6.70;94.50;;;;;;4995287;28;20706;-76
2023/03/08 08:11:43;;;;;;;7.50;5.80;;;6.60;95.70;;;;;;4995429;28;20242;-76
2023/03/08 08:14:10;;;;;;;8.15;5.07;;;6.30;98.60;;;;;;4995248;28;20595;-76
2023/03/08 08:16:37;;;;;;;8.60;5.25;;;6.20;99.90;;;;;;4995294;28;20202;-76
2023/03/08 08:19:04;;;;;;;5.93;5.25;;;6.10;99.90;;;;;;4995200;28;20210;-76
2023/03/08 08:21:30;;;;;;;8.90;6.18;;;6.00;99.90;;;;;;4996862;28;20203;-77
2023/03/08 08:23:58;;;;;;;9.35;6.70;;;6.30;99.90;;;;;;4995027;28;20548;-77
2023/03/08 08:26:26;;;;;;;8.00;6.35;;;6.40;99.90;;;;;;4995093;28;20689;-77
2023/03/08 08:28:53;;;;;;;6.15;5.55;;;6.60;99.90;;;;;;4995651;28;20210;-77
2023/03/08 08:31:22;;;;;;;7.43;6.13;;;6.80;98.90;;;;;;4996225;28;20206;-77
2023/03/08 08:33:49;;;;;;;8.95;5.75;;;7.00;99.90;;;;;;4996407;28;20214;-77
2023/03/08 08:36:18;;;;;;;6.18;5.57;;;7.20;96.90;;;;;;4997077;28;20207;-77
2023/03/08 08:38:45;;;;;;;6.25;5.57;;;7.50;94.20;;;;;;4997770;28;20209;-77
2023/03/08 08:41:14;;;;;;;6.88;5.45;;;7.90;96.10;;;;;;4997699;28;20254;-76
2023/03/08 08:43:43;;;;;;;6.50;4.97;;;;;;;;;;4995418;28;20700;-76
2023/03/08 08:46:10;;;;;;;7.80;5.15;;;8.50;96.00;;;;;;4995052;28;20561;-76
2023/03/08 08:48:37;;;;;;;6.10;4.80;;;8.40;90.50;;;;;;5000020;28;20210;-76
2023/03/08 08:51:05;;;;;;;5.20;4.70;;;8.10;91.50;;;;;;5001067;28;20222;-76
2023/03/08 08:53:33;;;;;;;7.35;5.15;;;8.10;93.40;;;;;;4997811;28;20209;-76
2023/03/08 08:56:09;;;;;;;5.30;4.78;;;8.10;92.00;;;;;;4994870;28;20213;-76
2023/03/08 08:58:35;;;;;;;5.90;4.53;;;8.10;93.70;;;;;;4996466;28;20187;-76
2023/03/08 09:01:03;;;;;;;5.88;4.60;;;8.00;92.00;;;;;;5009839;28;20225;-76
2023/03/08 09:03:30;;;;;;;7.68;4.97;;;8.00;93.80;;;;;;5010231;28;20214;-76
2023/03/08 09:05:58;;;;;;;4.32;3.80;;;7.90;94.80;;;;;;5007471;28;20658;-76
2023/03/08 09:08:25;;;;;;;3.72;3.42;;;7.80;97.20;;;;;;4994375;28;20219;-76
2023/03/08 09:10:51;;;;;;;3.55;3.13;;;7.90;99.40;;;;;;4994397;28;20230;-76
2023/03/08 09:13:18;;;;;;;3.42;3.15;;;8.00;99.90;;;;;;4994401;28;20198;-76
2023/03/08 09:15:45;;;;;;;3.40;3.03;;;8.00;99.90;;;;;;4994380;28;20214;-76
2023/03/08 09:18:13;;;;;;;2.80;2.60;;;8.00;99.90;;;;;;4994335;28;20203;-76
2023/03/08 09:20:39;;;;;;;2.92;2.72;;;8.10;99.90;;;;;;4994196;28;20226;-76
2023/03/08 09:23:07;;;;;;;2.80;2.60;;;8.10;99.90;;;;;;4994302;28;20199;-76
2023/03/08 09:25:33;;;;;;;3.00;2.72;;;7.90;99.90;;;;;;4993943;28;20209;-77
2023/03/08 09:28:00;;;;;;;3.33;3.13;;;7.80;99.90;;;;;;4994077;28;20222;-77
2023/03/08 09:30:28;;;;;;;3.00;2.80;;;7.70;99.90;;;;;;4994181;28;20281;-76
2023/03/08 09:32:55;;;;;;;3.33;2.90;;;7.70;99.90;;;;;;4994218;28;20270;-76
2023/03/08 09:35:23;;;;;;;4.97;3.00;;;7.80;99.90;;;;;;4994170;28;20214;-76
2023/03/08 09:37:49;;;;;;;3.63;2.95;;;7.80;99.90;;;;;;4994059;28;20206;-76
2023/03/08 09:40:21;;;;;;;2.92;2.72;;;7.80;99.90;;;;;;4993980;28;20277;-76
2023/03/08 09:42:48;;;;;;;3.70;3.33;;;7.90;99.90;;;;;;4994160;28;20256;-76
2023/03/08 09:45:24;;;;;;;2.60;2.45;;;7.80;99.90;;;;;;4994043;28;20210;-76
2023/03/08 09:47:58;;;;;;;2.95;2.65;;;7.70;99.90;;;;;;4993725;28;20206;-76
2023/03/08 09:50:38;;;;;;;4.97;3.22;;;7.60;99.90;;;;;;4993722;28;20698;-76
2023/03/08 09:53:17;;;;;;;3.17;2.90;;;7.50;99.90;;;;;;4993784;28;20191;-76
2023/03/08 09:55:48;;;;;;;4.22;2.67;;;7.50;99.90;;;;;;4993736;28;20649;-76
2023/03/08 09:58:24;;;;;;;3.03;2.83;;;7.50;99.90;;;;;;4994064;28;20191;-77
2023/03/08 10:00:51;;;;;;;2.60;2.38;;;7.60;99.90;;;;;;4993711;28;20230;-76
2023/03/08 10:03:53;;;;;;;2.33;2.22;;;7.60;99.90;;;;;;4993552;28;20700;-76
2023/03/08 10:06:30;;;;;;;2.60;2.50;;;7.90;99.90;;;;;;4969529;28;20206;-76
2023/03/08 10:09:02;;;;;;;2.70;2.50;;;8.20;99.90;;;;;;4994643;28;20186;-76
2023/03/08 10:11:33;;;;;;;2.70;2.50;;;8.30;99.90;;;;;;4993983;28;20191;-76
2023/03/08 10:14:06;;;;;;;3.60;2.60;;;8.20;99.90;;;;;;4993926;28;20187;-76
2023/03/08 10:16:39;;;;;;;2.20;2.00;;;8.30;99.90;;;;;;4993961;28;20187;-77
2023/03/08 10:19:14;;;;;;;2.20;2.10;;;8.30;99.90;;;;;;4993962;28;20195;-77
2023/03/08 10:21:44;;;;;;;3.22;2.20;;;8.30;99.90;;;;;;4994998;28;20194;-77
2023/03/08 10:24:16;;;;;;;2.60;2.40;;;8.20;99.90;;;;;;4994747;28;20206;-77
2023/03/08 10:26:43;;;;;;;1.98;1.88;;;8.00;99.90;;;;;;4993636;28;20191;-77
2023/03/08 10:29:11;;;;;;;2.10;2.00;;;7.90;99.90;;;;;;4993634;28;20210;-77
2023/03/08 10:31:39;;;;;;;1.80;1.70;;;7.90;99.90;;;;;;4994069;28;20210;-77
2023/03/08 10:34:13;;;;;;;1.95;1.85;;;7.90;99.90;;;;;;4994585;28;20233;-78
2023/03/08 10:36:53;;;;;;;2.63;2.42;;;7.80;99.90;;;;;;4993856;28;20210;-77
2023/03/08 10:39:21;;;;;;;2.53;2.33;;;7.80;99.90;;;;;;4998466;28;20222;-77
2023/03/08 10:41:49;;;;;;;2.45;2.35;;;7.70;99.90;;;;;;4997938;28;20202;-76
2023/03/08 10:44:30;;;;;;;2.25;2.15;;;7.60;99.90;;;;;;4997576;28;20211;-76
2023/03/08 10:46:57;;;;;;;2.42;2.22;;;7.60;99.90;;;;;;4996634;28;20229;-76
2023/03/08 10:49:24;;;;;;;2.20;2.00;;;7.50;99.90;;;;;;4996850;28;20234;-76
2023/03/08 10:51:54;;;;;;;1.77;1.73;;;7.40;99.90;;;;;;4996959;28;20209;-76
2023/03/08 10:54:21;;;;;;;2.25;2.15;;;7.40;99.90;;;;;;4996551;28;20681;-76
2023/03/08 10:56:54;;;;;;;1.95;1.60;;;7.40;99.90;;;;;;4996888;28;20202;-76
2023/03/08 10:59:26;;;;;;;2.22;2.05;;;7.40;99.90;;;;;;4996908;28;20223;-76
2023/03/08 11:01:56;;;;;;;1.55;1.55;;;7.30;99.90;;;;;;4996675;28;20225;-76
2023/03/08 11:04:24;;;;;;;1.80;1.75;;;7.30;99.90;;;;;;4996725;28;20211;-76
2023/03/08 11:06:52;;;;;;;1.55;1.52;;;7.30;99.90;;;;;;4996765;28;20209;-77
2023/03/08 11:09:22;;;;;;;1.80;1.70;;;7.20;99.90;;;;;;4996551;28;20227;-77
2023/03/08 11:11:48;;;;;;;1.73;1.73;;;7.30;99.90;;;;;;4996625;28;20234;-77
2023/03/08 11:14:15;;;;;;;1.60;1.50;;;7.40;99.90;;;;;;4997019;28;20207;-77
2023/03/08 11:17:12;;;;;;;1.95;1.67;;;7.40;99.90;;;;;;4996644;28;20206;-77
2023/03/08 11:19:58;;;;;;;1.25;1.25;;;7.60;99.90;;;;;;4979962;28;20709;-77
2023/03/08 11:23:00;;;;;;;1.15;1.15;;;7.70;99.90;;;;;;4996682;28;20278;-77
2023/03/08 11:25:36;;;;;;;1.45;1.35;;;7.70;99.90;;;;;;4996462;28;20190;-77
2023/03/08 11:28:31;;;;;;;1.20;1.20;;;7.80;99.90;;;;;;4996909;28;20613;-77
2023/03/08 11:31:13;;;;;;;1.65;1.55;;;7.90;99.90;;;;;;4996376;28;20230;-77
2023/03/08 11:34:01;;;;;;;1.20;1.20;;;7.90;99.90;;;;;;4996314;28;20210;-77
2023/03/08 11:36:35;;;;;;;1.05;1.05;;;8.00;99.90;;;;;;4993684;28;20206;-77
2023/03/08 11:39:13;;;;;;;2.45;1.50;;;8.20;99.90;;;;;;4995746;28;20182;-77
2023/03/08 11:41:47;;;;;;;1.05;1.05;;;8.30;99.90;;;;;;4996108;28;20187;-77
2023/03/08 11:44:27;;;;;;;1.00;1.00;;;8.50;99.90;;;;;;4996137;28;20630;-77
2023/03/08 11:47:08;;;;;;;1.00;0.90;;;8.60;99.90;;;;;;4996149;28;20237;-78
2023/03/08 11:49:58;;;;;;;0.90;0.90;;;8.70;99.90;;;;;;4995663;28;20222;-77
2023/03/08 11:52:32;;;;;;;1.00;0.95;;;8.80;99.90;;;;;;4995952;28;20198;-78
2023/03/08 11:55:19;;;;;;;0.80;0.80;;;8.90;99.90;;;;;;4996038;28;20194;-77
2023/03/08 11:57:50;;;;;;;0.70;0.70;;;9.10;99.90;;;;;;4995879;28;20187;-77
2023/03/08 12:00:24;;;;;;;0.90;0.90;;;9.10;99.90;;;;;;4995540;28;20738;-77
2023/03/08 12:02:53;;;;;;;0.90;0.90;;;9.20;99.90;;;;;;4995632;28;20215;-77
2023/03/08 12:05:27;;;;;;;0.70;0.70;;;9.30;99.90;;;;;;4995953;28;20207;-78
2023/03/08 12:07:58;;;;;;;0.60;0.60;;;9.30;99.90;;;;;;4995757;28;20207;-78
2023/03/08 12:10:30;;;;;;;0.70;0.70;;;9.40;99.90;;;;;;4996284;28;20305;-77
2023/03/08 12:13:02;;;;;;;0.77;0.77;;;9.40;99.90;;;;;;4995840;28;20229;-77
2023/03/08 12:15:34;;;;;;;0.80;0.80;;;9.40;99.90;;;;;;4995467;28;20630;-77
2023/03/08 12:18:07;;;;;;;0.60;0.60;;;9.40;99.90;;;;;;4995524;28;20555;-78
2023/03/08 12:20:38;;;;;;;0.60;0.60;;;9.30;99.90;;;;;;4995146;28;20720;-78
2023/03/08 12:23:15;;;;;;;0.60;0.60;;;9.10;99.90;;;;;;4995651;28;20198;-77
2023/03/08 12:25:47;;;;;;;0.50;0.50;;;9.00;99.90;;;;;;4995448;28;20190;-78
2023/03/08 12:28:19;;;;;;;0.50;0.50;;;8.90;99.90;;;;;;4995265;28;20211;-77
2023/03/08 12:31:01;;;;;;;0.60;0.60;;;8.80;99.90;;;;;;4995155;28;20318;-77
2023/03/08 12:33:29;;;;;;;0.47;0.47;;;8.70;99.90;;;;;;4995407;28;20198;-79
2023/03/08 12:35:58;;;;;;;0.50;0.50;;;8.70;99.90;;;;;;4996695;28;20253;-78
2023/03/08 12:38:37;;;;;;;0.80;0.80;;;8.70;99.90;;;;;;4995342;28;20199;-72
2023/03/08 12:41:19;;;;;;;0.50;0.50;;;8.60;99.90;;;;;;4997742;28;20222;-78
2023/03/08 12:43:46;;;;;;;0.40;0.40;;;8.70;99.90;;;;;;4997740;28;20190;-78
2023/03/08 12:46:12;;;;;;;1.55;0.50;;;8.70;99.90;;;;;;4997594;28;20202;-79
2023/03/08 12:48:48;;;;;;;0.68;0.60;;;8.80;99.90;;;;;;4998291;28;20215;-80
2023/03/08 12:51:22;;;;;;;0.60;0.60;;;9.00;99.90;;;;;;4998996;28;20226;-79
2023/03/08 12:53:58;;;;;;;0.50;0.50;;;9.00;99.90;;;;;;4998814;28;20182;-79
2023/03/08 12:56:30;;;;;;;0.40;0.40;;;9.10;99.90;;;;;;4998714;28;20190;-79
2023/03/08 12:58:58;;;;;;;0.30;0.30;;;9.10;99.90;;;;;;4998762;28;20190;-78
2023/03/08 13:01:37;;;;;;;0.65;0.65;;;9.20;99.90;;;;;;4996821;28;20221;-78
2023/03/08 13:04:07;;;;;;;0.40;0.40;;;9.30;99.90;;;;;;4997057;28;20198;-78
2023/03/08 13:07:08;;;;;;;0.60;0.60;;;9.20;99.90;;;;;;4996534;28;20206;-78
2023/03/08 13:09:37;;;;;;;0.40;0.40;;;9.10;99.90;;;;;;4995333;28;20233;-76
2023/03/08 13:12:22;;;;;;;0.43;0.43;;;9.10;99.90;;;;;;4994196;28;20570;-76
2023/03/08 13:15:01;;;;;;;0.35;0.35;;;9.20;99.90;;;;;;4994261;28;20190;-76
2023/03/08 13:17:39;;;;;;;0.40;0.40;;;9.20;99.90;;;;;;4994268;28;20650;-76
2023/03/08 13:20:15;;;;;;;0.40;0.40;;;9.10;99.90;;;;;;4994350;28;20257;-76
2023/03/08 13:22:56;;;;;;;0.40;0.40;;;9.10;99.90;;;;;;4994387;28;20183;-78
2023/03/08 13:25:36;;;;;;;0.20;0.20;;;9.10;99.90;;;;;;4994753;28;20183;-78
2023/03/08 13:28:09;;;;;;;1.48;0.30;;;9.20;99.90;;;;;;4994325;28;20206;-78
2023/03/08 13:30:37;;;;;;;0.28;0.28;;;9.10;99.90;;;;;;4994062;28;20233;-78
2023/03/08 13:33:12;;;;;;;0.40;0.40;;;9.10;99.90;;;;;;4994275;28;20206;-77
2023/03/08 13:35:38;;;;;;;0.47;0.40;;;9.00;99.90;;;;;;4994893;28;20197;-79
2023/03/08 13:38:05;;;;;;;0.55;0.30;;;8.90;99.90;;;;;;4995154;28;20659;-78
2023/03/08 13:40:32;;;;;;;0.35;0.35;;;8.90;99.90;;;;;;4995220;28;20222;-77
2023/03/08 13:43:03;;;;;;;0.40;0.40;;;8.80;99.90;;;;;;4994818;28;20234;-78
2023/03/08 13:45:32;;;;;;;0.40;0.40;;;8.70;99.90;;;;;;4994513;28;20285;-79
2023/03/08 13:48:02;;;;;;;0.30;0.30;;;8.70;99.90;;;;;;4994810;28;20210;-78
2023/03/08 13:50:31;;;;;;;0.40;0.40;;;8.70;99.90;;;;;;4996976;28;20218;-79
2023/03/08 13:53:00;;;;;;;0.25;0.25;;;8.60;99.90;;;;;;4996023;28;20262;-78
2023/03/08 13:55:32;;;;;;;0.52;0.40;;;8.60;99.90;;;;;;4996423;28;20253;-79
2023/03/08 13:58:00;;;;;;;1.35;1.35;;;8.50;99.90;;;;;;4995456;28;20274;-78
2023/03/08 14:00:30;;;;;;;1.67;1.08;;;8.40;99.90;;;;;;4995422;28;20674;-77
2023/03/08 14:02:59;;;;;;;0.98;0.98;;;8.30;99.90;;;;;;4995530;28;20210;-78
2023/03/08 14:05:28;;;;;;;0.60;0.60;;;8.20;99.90;;;;;;4995701;28;20199;-79
2023/03/08 14:08:00;;;;;;;0.60;0.60;;;8.20;99.90;;;;;;4995699;28;20567;-79
2023/03/08 14:10:38;;;;;;;0.63;0.63;;;8.10;99.90;;;;;;4995187;28;20230;-78
2023/03/08 14:13:07;;;;;;;0.60;0.60;;;8.20;99.90;;;;;;4996166;28;20187;-78
2023/03/08 14:15:38;;;;;;;0.40;0.40;;;8.20;99.90;;;;;;5001393;28;20210;-79
2023/03/08 14:18:08;;;;;;;0.45;0.45;;;8.40;99.90;;;;;;5000592;28;20253;-78
2023/03/08 14:20:36;;;;;;;0.40;0.40;;;8.50;99.90;;;;;;5001256;28;20321;-78
2023/03/08 14:23:04;;;;;;;0.50;0.50;;;8.50;99.90;;;;;;5001921;28;20207;-77
2023/03/08 14:25:32;;;;;;;0.43;0.43;;;8.70;99.90;;;;;;5001354;28;20213;-79
2023/03/08 14:27:59;;;;;;;0.50;0.50;;;8.80;99.90;;;;;;5001755;28;20293;-75
2023/03/08 14:30:28;;;;;;;0.38;0.38;;;8.90;99.90;;;;;;4999746;28;20223;-78
2023/03/08 14:33:05;;;;;;;0.50;0.50;;;9.00;99.90;;;;;;4999731;28;20194;-79
2023/03/08 14:35:36;;;;;;;0.70;0.70;;;9.00;99.90;;;;;;5000604;28;20186;-79
2023/03/08 14:38:12;;;;;;;0.60;0.60;;;9.00;99.90;;;;;;4998847;28;20190;-77
2023/03/08 14:40:47;;;;;;;0.60;0.60;;;9.00;99.90;;;;;;4997546;28;20282;-77
2023/03/08 14:43:17;;;;;;;0.77;0.77;;;8.90;99.90;;;;;;4997871;28;20594;-79
2023/03/08 14:45:52;;;;;;;0.55;0.55;;;8.90;99.90;;;;;;4999784;28;20207;-78
2023/03/08 14:48:23;;;;;;;0.50;0.50;;;8.90;99.90;;;;;;4999607;28;20215;-78
2023/03/08 14:50:57;;;;;;;0.77;0.50;;;8.80;99.90;;;;;;4997976;28;20227;-77
2023/03/08 14:53:30;;;;;;;0.50;0.50;;;8.70;99.90;;;;;;4998263;28;20222;-78
2023/03/08 14:55:58;;;;;;;0.50;0.50;;;8.60;99.90;;;;;;4999150;28;20546;-78
2023/03/08 14:58:28;;;;;;;0.57;0.57;;;8.60;99.90;;;;;;5002554;28;20659;-77
2023/03/08 15:00:57;;;;;;;0.68;0.68;;;8.60;99.90;;;;;;5001868;28;20273;-76
2023/03/08 15:03:24;;;;;;;0.80;0.80;;;8.70;99.90;;;;;;5001164;28;20214;-78
2023/03/08 15:05:51;;;;;;;0.80;0.80;;;8.80;99.90;;;;;;4999874;28;20203;-79
2023/03/08 15:08:19;;;;;;;0.80;0.80;;;8.80;99.90;;;;;;4999691;28;20206;-78
2023/03/08 15:10:48;;;;;;;0.65;0.65;;;8.80;99.90;;;;;;4998972;28;20230;-78
2023/03/08 15:13:17;;;;;;;0.82;0.60;;;8.80;99.90;;;;;;4999590;28;20203;-79
2023/03/08 15:15:44;;;;;;;0.57;0.57;;;8.80;99.90;;;;;;5002546;28;20209;-78
2023/03/08 15:18:11;;;;;;;0.70;0.70;;;8.80;99.90;;;;;;5005426;28;20202;-78
2023/03/08 15:20:43;;;;;;;0.50;0.50;;;8.80;99.90;;;;;;5006624;28;20222;-77
2023/03/08 15:23:15;;;;;;;1.23;1.23;;;9.10;99.90;;;;;;5002939;28;20191;-78
2023/03/08 15:25:43;;;;;;;0.60;0.60;;;8.90;99.90;;;;;;5002379;28;20190;-78
2023/03/08 15:28:13;;;;;;;0.70;0.70;;;8.80;99.90;;;;;;5006615;28;20214;-77
2023/03/08 15:30:41;;;;;;;0.57;0.57;;;8.80;99.90;;;;;;5006537;28;20234;-77
2023/03/08 15:33:08;;;;;;;1.77;0.70;;;8.80;99.90;;;;;;5004202;28;20210;-78
2023/03/08 15:35:35;;;;;;;1.05;0.55;;;8.70;99.90;;;;;;5005992;28;20206;-78
2023/03/08 15:38:02;;;;;;;0.65;0.65;;;8.70;99.90;;;;;;5002514;28;20218;-78
2023/03/08 15:40:31;;;;;;;0.70;0.70;;;8.70;99.90;;;;;;5003100;28;20266;-78
2023/03/08 15:43:00;;;;;;;0.50;0.50;;;8.60;99.90;;;;;;5007847;28;20214;-79
2023/03/08 15:45:27;;;;;;;0.63;0.63;;;8.60;99.90;;;;;;5005490;28;20211;-79
2023/03/08 15:47:58;;;;;;;0.70;0.70;;;8.60;99.90;;;;;;5003016;28;20620;-79
2023/03/08 15:50:25;;;;;;;0.90;0.90;;;8.50;99.90;;;;;;5002824;28;20226;-77
2023/03/08 15:52:53;;;;;;;1.67;1.33;;;8.50;99.90;;;;;;5001519;28;20215;-78
2023/03/08 15:55:21;;;;;;;1.58;0.90;;;8.40;99.90;;;;;;5004442;28;20294;-78
2023/03/08 15:57:48;;;;;;;0.98;0.98;;;8.30;99.90;;;;;;5006102;28;20202;-79
2023/03/08 16:00:18;;;;;;;1.00;1.00;;;8.30;99.90;;;;;;5005146;28;20293;-78
2023/03/08 16:02:45;;;;;;;1.55;1.35;;;8.30;99.90;;;;;;5006495;28;20221;-79
2023/03/08 16:05:13;;;;;;;1.00;1.00;;;8.20;99.90;;;;;;5007330;28;20229;-77
2023/03/08 16:07:40;;;;;;;3.42;1.33;;;8.20;99.90;;;;;;4999060;28;20229;-78
2023/03/08 16:10:09;;;;;;;0.98;0.98;;;8.10;99.90;;;;;;4998911;28;20632;-79
2023/03/08 16:12:36;;;;;;;0.80;0.80;;;8.10;99.90;;;;;;4998010;28;20214;-78
2023/03/08 16:15:04;;;;;;;1.33;1.27;;;8.10;99.90;;;;;;4996230;28;20203;-78
2023/03/08 16:17:32;;;;;;;3.70;1.48;;;8.00;99.90;;;;;;4996283;28;20693;-78
2023/03/08 16:19:59;;;;;;;1.60;1.50;;;8.00;99.90;;;;;;4996093;28;20222;-77
2023/03/08 16:22:27;;;;;;;1.65;1.50;;;8.00;99.90;;;;;;4996608;28;20198;-79
2023/03/08 16:24:53;;;;;;;1.40;1.27;;;8.00;99.90;;;;;;4996430;28;20641;-78
2023/03/08 16:27:21;;;;;;;1.52;1.30;;;7.90;99.90;;;;;;4996004;28;20302;-78
2023/03/08 16:29:50;;;;;;;1.13;1.10;;;7.90;99.90;;;;;;4995757;28;20238;-78
2023/03/08 16:32:18;;;;;;;1.90;1.30;;;7.90;99.90;;;;;;4995920;28;20206;-78
2023/03/08 16:34:49;;;;;;;1.00;1.00;;;7.80;99.90;;;;;;4995519;28;20241;-78
2023/03/08 16:37:17;;;;;;;1.63;1.52;;;7.80;99.90;;;;;;4996474;28;20203;-79
2023/03/08 16:39:44;;;;;;;1.25;0.93;;;7.80;99.90;;;;;;4998035;28;20215;-80
2023/03/08 16:42:12;;;;;;;1.25;1.23;;;7.70;99.90;;;;;;4995972;28;20206;-77
2023/03/08 16:44:39;;;;;;;1.10;1.10;;;7.70;99.90;;;;;;4995332;28;20206;-79
2023/03/08 16:47:06;;;;;;;1.13;1.00;;;7.70;99.90;;;;;;4995350;28;20199;-78
2023/03/08 16:49:33;;;;;;;0.90;0.90;;;7.70;99.90;;;;;;4996397;28;20226;-79
2023/03/08 16:52:01;;;;;;;2.40;1.50;;;7.70;99.90;;;;;;4998112;28;20206;-78
2023/03/08 16:54:28;;;;;;;1.00;1.00;;;7.70;99.90;;;;;;4995952;28;20226;-78
2023/03/08 16:56:55;;;;;;;1.25;1.25;;;7.70;99.90;;;;;;4998245;28;20214;-80
2023/03/08 16:59:22;;;;;;;1.42;1.17;;;7.70;99.90;;;;;;4996391;28;20554;-81
2023/03/08 17:01:48;;;;;;;1.33;1.23;;;7.70;99.90;;;;;;4995881;28;20213;-79
2023/03/08 17:04:16;;;;;;;1.23;1.23;;;7.60;99.90;;;;;;4994798;28;20741;-75
2023/03/08 17:06:44;;;;;;;1.23;1.20;;;7.60;99.90;;;;;;4995131;28;20214;-78
2023/03/08 17:09:12;;;;;;;1.60;1.50;;;7.70;99.90;;;;;;4995110;28;20230;-77
2023/03/08 17:11:39;;;;;;;1.52;1.48;;;7.70;99.90;;;;;;4994889;28;20191;-76
2023/03/08 17:14:08;;;;;;;1.10;0.90;;;7.70;99.90;;;;;;4995313;28;20198;-76
2023/03/08 17:16:35;;;;;;;1.20;1.20;;;7.60;99.90;;;;;;4994762;28;20207;-75
2023/03/08 17:19:04;;;;;;;1.63;0.95;;;7.60;99.90;;;;;;4995752;28;20573;-76
2023/03/08 17:21:31;;;;;;;3.20;1.90;;;7.60;99.90;;;;;;4994797;28;20223;-75
2023/03/08 17:23:59;;;;;;;1.58;1.48;;;7.60;99.90;;;;;;4995449;28;20202;-75
2023/03/08 17:26:27;;;;;;;1.30;1.30;;;7.60;99.90;;;;;;4994420;28;20663;-75
2023/03/08 17:28:54;;;;;;;1.58;1.50;;;7.60;99.90;;;;;;4994329;28;20206;-75
2023/03/08 17:31:22;;;;;;;1.20;1.20;;;7.60;99.90;;;;;;4994402;28;20612;-75
2023/03/08 17:33:50;;;;;;;2.20;2.10;;;7.60;99.90;;;;;;4994375;28;20206;-73
2023/03/08 17:36:17;;;;;;;1.33;1.33;;;7.60;99.90;;;;;;4994130;28;20588;-75
2023/03/08 17:38:43;;;;;;;0.93;0.93;;;7.60;99.90;;;;;;4994371;28;20207;-75
2023/03/08 17:41:13;;;;;;;0.80;0.70;;;7.60;99.90;;;;;;4994242;28;20234;-74
2023/03/08 17:43:41;;;;;;;0.70;0.70;;;7.60;99.90;;;;;;4994453;28;20214;-77
2023/03/08 17:46:10;;;;;;;1.10;0.90;;;7.60;99.90;;;;;;4994366;28;20199;-77
2023/03/08 17:48:38;;;;;;;1.08;1.08;;;7.60;99.90;;;;;;4997880;28;20203;-77
2023/03/08 17:51:06;;;;;;;0.60;0.60;;;7.60;99.90;;;;;;4998521;28;20262;-76
2023/03/08 17:53:33;;;;;;;1.52;0.50;;;7.60;99.90;;;;;;4998530;28;20228;-76
2023/03/08 17:56:01;;;;;;;0.60;0.60;;;7.60;99.90;;;;;;4998039;28;20573;-77
2023/03/08 17:58:28;;;;;;;0.77;0.77;;;7.60;99.90;;;;;;4997902;28;20756;-76
2023/03/08 18:00:56;;;;;;;0.60;0.60;;;7.60;99.90;;;;;;4997833;28;20222;-74
2023/03/08 18:03:23;;;;;;;0.73;0.73;;;7.50;99.90;;;;;;4997844;28;20211;-76
2023/03/08 18:05:52;;;;;;;0.50;0.50;;;7.50;99.90;;;;;;4997839;28;20202;-77
2023/03/08 18:08:19;;;;;;;0.60;0.60;;;7.50;99.90;;;;;;4998439;28;20206;-77